Time;durP1;ratioP1;P1;durP2;ratioP2;P2;SDS_P1;SDS_P2;PMS_P1;PMS_P2;Temp;Humidity;BMP_temperature;BMP_pressure;BME280_temperature;BME280_humidity;BME280_pressure;Samples;Min_cycle;Max_cycle;Signal;HPM_P1;HPM_P2
2022/12/24 00:01:05;;;;;;;7.67;4.70;;;7.50;99.90;;;;;;6214939;23;20185;-91
2022/12/24 00:03:32;;;;;;;5.53;4.80;;;7.50;99.90;;;;;;6188590;23;20517;-90
2022/12/24 00:06:01;;;;;;;9.63;5.93;;;7.50;99.90;;;;;;6188685;23;20613;-89
2022/12/24 00:08:26;;;;;;;3.83;3.17;;;7.50;99.90;;;;;;6215066;23;20158;-89
2022/12/24 00:10:52;;;;;;;6.30;2.77;;;7.50;99.90;;;;;;6188838;23;20158;-91
2022/12/24 00:13:19;;;;;;;3.33;3.03;;;7.40;99.90;;;;;;6215407;23;20158;-92
2022/12/24 00:15:45;;;;;;;5.30;3.43;;;7.50;99.90;;;;;;6214382;23;20193;-90
2022/12/24 00:18:11;;;;;;;3.70;3.50;;;7.50;99.90;;;;;;6189067;23;20162;-90
2022/12/24 00:20:36;;;;;;;4.40;3.97;;;7.50;99.90;;;;;;6188465;23;20165;-90
2022/12/24 00:23:02;;;;;;;3.93;2.77;;;7.60;99.90;;;;;;6139684;23;20325;-90
2022/12/24 00:25:28;;;;;;;3.77;3.37;;;7.50;99.90;;;;;;6188878;23;20519;-91
2022/12/24 00:27:53;;;;;;;7.70;5.00;;;7.60;99.90;;;;;;6188898;23;20162;-91
2022/12/24 00:30:19;;;;;;;4.80;3.33;;;7.60;99.90;;;;;;6188879;23;20162;-91
2022/12/24 00:32:46;;;;;;;4.67;3.77;;;7.60;99.90;;;;;;6188797;23;20154;-90
2022/12/24 00:35:11;;;;;;;4.73;3.43;;;7.60;99.90;;;;;;6188668;23;20186;-91
2022/12/24 00:37:37;;;;;;;2.20;1.93;;;7.50;99.90;;;;;;6138470;23;20177;-89
2022/12/24 00:40:03;;;;;;;7.87;3.17;;;7.60;99.90;;;;;;6138840;23;20201;-90
2022/12/24 00:42:29;;;;;;;4.17;3.77;;;7.50;99.90;;;;;;6164098;23;20237;-91
2022/12/24 00:44:54;;;;;;;4.20;3.50;;;7.50;99.90;;;;;;6214709;23;20221;-89
2022/12/24 00:47:20;;;;;;;8.63;4.90;;;7.60;99.90;;;;;;6163821;23;20186;-90
2022/12/24 00:49:46;;;;;;;3.73;3.20;;;7.60;99.90;;;;;;6139213;23;20548;-90
2022/12/24 00:52:12;;;;;;;5.70;5.20;;;7.60;99.90;;;;;;6188564;23;20212;-92
2022/12/24 00:54:37;;;;;;;7.77;3.87;;;7.60;99.90;;;;;;6163364;23;20165;-90
2022/12/24 00:57:03;;;;;;;3.77;3.40;;;7.60;99.90;;;;;;6188786;23;20169;-91
2022/12/24 00:59:29;;;;;;;10.47;4.17;;;7.50;99.90;;;;;;6188499;23;20169;-91
2022/12/24 01:01:54;;;;;;;3.83;3.47;;;7.60;99.90;;;;;;6163976;23;20162;-90
2022/12/24 01:07:05;;;;;;;3.80;3.07;;;7.60;99.90;;;;;;6214813;23;20593;-90
2022/12/24 01:09:31;;;;;;;5.77;2.77;;;7.50;99.90;;;;;;6188221;23;20162;-91
2022/12/24 01:11:56;;;;;;;4.70;3.37;;;7.50;99.90;;;;;;6163574;23;20155;-91
2022/12/24 01:14:22;;;;;;;6.33;4.67;;;7.50;99.90;;;;;;6163898;23;20487;-91
2022/12/24 01:16:48;;;;;;;4.30;3.23;;;7.60;99.90;;;;;;6140306;23;20483;-91
2022/12/24 01:19:14;;;;;;;8.33;4.30;;;7.60;99.90;;;;;;6190631;23;20162;-90
2022/12/24 01:21:39;;;;;;;4.77;3.90;;;7.50;99.90;;;;;;6190444;23;20273;-90
2022/12/24 01:24:05;;;;;;;6.10;4.30;;;7.60;99.90;;;;;;6141326;23;20189;-91
2022/12/24 01:26:31;;;;;;;5.20;4.27;;;7.60;99.90;;;;;;6165625;23;20154;-90
2022/12/24 01:28:58;;;;;;;6.90;3.57;;;7.60;99.90;;;;;;6140670;23;20158;-91
2022/12/24 01:31:24;;;;;;;7.27;5.07;;;7.60;99.90;;;;;;6190385;23;20165;-90
2022/12/24 01:33:49;;;;;;;8.40;4.37;;;7.60;99.90;;;;;;6165171;23;20163;-91
2022/12/24 01:36:15;;;;;;;5.23;3.90;;;7.70;99.90;;;;;;6190374;23;20599;-91
2022/12/24 01:38:41;;;;;;;4.87;3.43;;;7.70;99.90;;;;;;6189692;23;20162;-91
2022/12/24 01:43:57;;;;;;;5.53;5.03;;;7.70;99.90;;;;;;6195420;23;20152;-90
2022/12/24 01:46:30;;;;;;;13.33;4.20;;;7.70;99.90;;;;;;6189742;23;20158;-90
2022/12/24 01:49:00;;;;;;;5.93;4.47;;;7.70;99.90;;;;;;6189811;23;20170;-91
2022/12/24 01:51:43;;;;;;;9.70;3.80;;;7.70;99.90;;;;;;6190118;23;20147;-91
2022/12/24 01:54:19;;;;;;;4.77;4.33;;;7.80;99.90;;;;;;6190570;23;20173;-91
2022/12/24 01:56:51;;;;;;;3.40;3.10;;;7.80;99.90;;;;;;6216202;23;20171;-91
2022/12/24 01:59:19;;;;;;;6.40;4.33;;;7.80;99.90;;;;;;6190083;23;20214;-91
2022/12/24 02:01:48;;;;;;;5.13;3.73;;;7.80;99.90;;;;;;6189494;23;20154;-91
2022/12/24 02:04:27;;;;;;;4.93;4.53;;;7.80;99.90;;;;;;6216181;23;20547;-91
2022/12/24 02:06:53;;;;;;;6.40;4.10;;;7.80;99.90;;;;;;6189950;23;20142;-91
2022/12/24 02:09:19;;;;;;;5.67;4.57;;;7.80;99.90;;;;;;6216117;23;20173;-91
2022/12/24 02:11:45;;;;;;;6.87;3.63;;;7.80;99.90;;;;;;6165809;23;20165;-91
2022/12/24 02:14:13;;;;;;;4.87;2.93;;;7.80;99.90;;;;;;6216262;23;20168;-91
2022/12/24 02:17:08;;;;;;;3.53;3.17;;;7.80;99.90;;;;;;6215671;23;20157;-90
2022/12/24 02:19:46;;;;;;;8.00;5.50;;;7.80;99.90;;;;;;6216209;23;20181;-91
2022/12/24 02:22:40;;;;;;;4.00;3.80;;;7.90;99.90;;;;;;6189842;23;20569;-91
2022/12/24 02:25:20;;;;;;;4.10;3.70;;;7.80;99.90;;;;;;6189463;23;20174;-92
2022/12/24 02:27:56;;;;;;;7.00;5.40;;;7.80;99.90;;;;;;6215387;23;20234;-91
2022/12/24 02:30:26;;;;;;;13.20;6.90;;;7.90;99.90;;;;;;6216180;23;20197;-91
2022/12/24 02:33:06;;;;;;;5.13;3.53;;;7.90;99.90;;;;;;6189987;23;20581;-90
2022/12/24 02:35:41;;;;;;;2.97;2.70;;;7.90;99.90;;;;;;6189307;23;20151;-90
2022/12/24 02:38:14;;;;;;;5.70;3.67;;;7.90;99.90;;;;;;6216244;23;20169;-91
2022/12/24 02:40:51;;;;;;;5.23;3.90;;;8.00;99.90;;;;;;6189085;23;20589;-90
2022/12/24 02:43:22;;;;;;;8.10;4.60;;;8.00;99.90;;;;;;6189305;23;20150;-90
2022/12/24 02:45:53;;;;;;;5.20;4.23;;;8.10;99.90;;;;;;6188983;23;20182;-89
2022/12/24 02:48:20;;;;;;;7.30;4.47;;;8.10;99.90;;;;;;6189325;23;20237;-90
2022/12/24 02:51:07;;;;;;;5.77;3.70;;;8.10;99.90;;;;;;6216425;23;20150;-90
2022/12/24 02:53:34;;;;;;;4.57;3.93;;;8.20;99.90;;;;;;6189330;23;20166;-91
2022/12/24 02:56:27;;;;;;;5.07;4.37;;;8.10;99.90;;;;;;6189440;23;20246;-90
2022/12/24 02:59:08;;;;;;;5.97;3.77;;;8.10;99.90;;;;;;6215593;23;20589;-91
2022/12/24 03:01:59;;;;;;;4.63;4.20;;;8.20;99.90;;;;;;6215792;23;20146;-90
2022/12/24 03:04:39;;;;;;;8.77;4.90;;;8.20;99.90;;;;;;6216357;23;20205;-91
2022/12/24 03:07:13;;;;;;;7.37;4.63;;;8.20;99.90;;;;;;6189202;23;20150;-91
2022/12/24 03:10:10;;;;;;;5.50;3.77;;;8.20;99.90;;;;;;6189668;23;20138;-91
2022/12/24 03:12:48;;;;;;;6.60;3.43;;;8.30;99.90;;;;;;6189093;23;20218;-90
2022/12/24 03:15:16;;;;;;;5.57;2.57;;;8.30;99.90;;;;;;6188946;23;20157;-90
2022/12/24 03:17:46;;;;;;;4.93;4.53;;;8.30;99.90;;;;;;6189148;23;20158;-89
2022/12/24 03:20:18;;;;;;;5.90;3.00;;;8.30;99.90;;;;;;6189087;23;20150;-90
2022/12/24 03:22:44;;;;;;;3.87;2.83;;;8.40;99.90;;;;;;6189116;23;20162;-90
2022/12/24 03:25:09;;;;;;;21.27;3.33;;;8.40;99.90;;;;;;6189306;23;20190;-91
2022/12/24 03:27:37;;;;;;;2.67;2.47;;;8.50;99.90;;;;;;6188960;23;20197;-92
2022/12/24 03:30:07;;;;;;;2.43;2.20;;;8.50;99.90;;;;;;6215328;23;20158;-92
2022/12/24 03:32:33;;;;;;;2.77;2.60;;;8.50;99.90;;;;;;6188603;23;20151;-91
2022/12/24 03:34:58;;;;;;;5.93;2.03;;;8.50;99.90;;;;;;6189013;23;20177;-90
2022/12/24 03:37:26;;;;;;;1.87;1.77;;;8.60;99.90;;;;;;6188949;23;20173;-91
2022/12/24 03:39:52;;;;;;;3.73;3.33;;;8.60;99.90;;;;;;6188677;23;20155;-92
2022/12/24 03:42:17;;;;;;;1.90;1.27;;;8.70;99.90;;;;;;6164256;23;20180;-90
2022/12/24 03:44:43;;;;;;;4.33;2.00;;;8.70;99.90;;;;;;6188632;23;20206;-88
2022/12/24 03:47:09;;;;;;;5.47;3.00;;;8.70;99.90;;;;;;6164478;23;20158;-91
2022/12/24 03:49:35;;;;;;;5.70;1.43;;;8.70;99.90;;;;;;6164318;23;20185;-91
2022/12/24 03:52:01;;;;;;;2.63;1.43;;;8.70;99.90;;;;;;6188624;23;20649;-90
2022/12/24 03:54:26;;;;;;;2.47;2.27;;;8.70;99.90;;;;;;6164536;23;20163;-91
2022/12/24 03:56:52;;;;;;;0.30;0.30;;;8.70;99.90;;;;;;6188973;23;20620;-92
2022/12/24 03:59:18;;;;;;;1.47;1.37;;;8.80;99.90;;;;;;6164106;23;20551;-91
2022/12/24 04:01:43;;;;;;;1.10;1.00;;;8.80;99.90;;;;;;6164122;23;20162;-91
2022/12/24 04:04:09;;;;;;;3.47;2.30;;;8.80;99.90;;;;;;6164032;23;20520;-91
2022/12/24 04:06:35;;;;;;;3.13;1.73;;;8.90;99.90;;;;;;6188676;23;20150;-90
2022/12/24 04:09:03;;;;;;;2.47;0.90;;;8.90;99.90;;;;;;6188943;23;20162;-91
2022/12/24 04:11:30;;;;;;;1.53;1.43;;;8.90;99.90;;;;;;6188289;23;20203;-91
2022/12/24 04:13:56;;;;;;;1.60;1.33;;;9.00;99.90;;;;;;6188738;23;20451;-89
2022/12/24 04:16:22;;;;;;;5.37;1.70;;;9.00;99.90;;;;;;6188751;23;20165;-91
2022/12/24 04:18:48;;;;;;;3.13;2.83;;;9.00;99.90;;;;;;6214739;23;20159;-90
2022/12/24 04:21:14;;;;;;;2.57;2.30;;;9.10;99.90;;;;;;6215210;23;20158;-91
2022/12/24 04:23:41;;;;;;;7.30;1.47;;;9.10;99.90;;;;;;6215233;23;20157;-91
2022/12/24 04:26:08;;;;;;;3.70;3.03;;;9.10;99.90;;;;;;6214255;23;20511;-91
2022/12/24 04:28:34;;;;;;;7.63;1.90;;;9.10;99.90;;;;;;6163989;23;20161;-89
2022/12/24 04:31:06;;;;;;;8.30;3.10;;;9.10;99.90;;;;;;6188539;23;20165;-91
2022/12/24 04:33:31;;;;;;;8.00;0.97;;;9.20;99.90;;;;;;6188480;23;20574;-90
2022/12/24 04:35:58;;;;;;;10.90;1.67;;;9.20;99.90;;;;;;6163703;23;20205;-90
2022/12/24 04:38:24;;;;;;;6.13;1.43;;;9.30;99.90;;;;;;6188869;23;20150;-90
2022/12/24 04:41:10;;;;;;;9.43;0.70;;;9.20;99.90;;;;;;6214693;23;20260;-90
2022/12/24 04:43:36;;;;;;;0.80;0.80;;;9.20;99.90;;;;;;6189139;23;20157;-91
2022/12/24 04:46:07;;;;;;;9.13;1.13;;;9.30;99.90;;;;;;6188485;23;20186;-90
2022/12/24 04:48:33;;;;;;;4.70;1.23;;;9.20;99.90;;;;;;6188770;23;20182;-89
2022/12/24 04:51:03;;;;;;;14.83;2.93;;;9.30;99.90;;;;;;6214856;23;20165;-91
2022/12/24 04:53:30;;;;;;;1.53;1.00;;;9.30;99.90;;;;;;6216558;23;20572;-91
2022/12/24 04:55:56;;;;;;;12.30;1.37;;;9.30;99.90;;;;;;6190631;23;20165;-89
2022/12/24 04:58:22;;;;;;;1.20;1.17;;;9.30;99.90;;;;;;6165673;23;20158;-91
2022/12/24 05:00:48;;;;;;;7.30;1.97;;;9.30;99.90;;;;;;6216745;23;20235;-91
2022/12/24 05:03:13;;;;;;;6.80;2.27;;;9.30;99.90;;;;;;6166046;23;20189;-90
2022/12/24 05:05:39;;;;;;;1.53;1.03;;;9.30;99.90;;;;;;6190274;23;20193;-89
2022/12/24 05:08:05;;;;;;;18.43;3.03;;;9.30;99.90;;;;;;6216585;23;20162;-92
2022/12/24 05:10:31;;;;;;;1.53;1.23;;;9.30;99.90;;;;;;6165649;23;20593;-90
2022/12/24 05:12:57;;;;;;;6.33;1.50;;;9.30;99.90;;;;;;6190397;23;20216;-90
2022/12/24 05:15:23;;;;;;;14.17;2.53;;;9.20;99.90;;;;;;6216629;23;20522;-90
2022/12/24 05:17:49;;;;;;;2.10;0.80;;;9.20;99.90;;;;;;6190665;23;20217;-90
2022/12/24 05:20:15;;;;;;;23.23;1.90;;;9.20;99.90;;;;;;6165085;23;20158;-90
2022/12/24 05:28:17;;;;;;;6.00;1.93;;;9.10;99.90;;;;;;6216243;23;20185;-89
2022/12/24 05:30:43;;;;;;;5.43;0.93;;;9.10;99.90;;;;;;6190111;23;20169;-90
2022/12/24 05:33:09;;;;;;;7.40;1.17;;;9.00;99.90;;;;;;6216692;23;20162;-89
2022/12/24 05:35:35;;;;;;;3.40;1.20;;;9.10;99.90;;;;;;6165839;23;20166;-90
2022/12/24 05:38:01;;;;;;;20.47;1.90;;;9.10;99.90;;;;;;6189734;23;20474;-90
2022/12/24 05:40:27;;;;;;;13.67;0.97;;;9.00;99.90;;;;;;6216768;23;20161;-89
2022/12/24 05:42:52;;;;;;;4.13;3.30;;;9.00;99.90;;;;;;6189954;23;20209;-89
2022/12/24 05:45:18;;;;;;;18.53;5.37;;;9.00;99.90;;;;;;6164952;23;20186;-89
2022/12/24 05:47:44;;;;;;;8.70;1.13;;;9.00;99.90;;;;;;6165236;23;20154;-89
2022/12/24 05:50:10;;;;;;;7.93;2.23;;;9.00;99.90;;;;;;6189860;23;20151;-89
2022/12/24 05:52:36;;;;;;;1.97;1.87;;;9.00;99.90;;;;;;6189855;23;20182;-89
2022/12/24 05:55:01;;;;;;;1.43;0.80;;;9.00;99.90;;;;;;6164941;23;20217;-90
2022/12/24 05:57:27;;;;;;;3.70;2.77;;;9.00;99.90;;;;;;6165420;23;20664;-90
2022/12/24 05:59:53;;;;;;;1.37;1.27;;;9.00;99.90;;;;;;6164987;23;20659;-90
2022/12/24 06:02:18;;;;;;;8.70;2.07;;;8.90;99.90;;;;;;6165154;23;20158;-90
2022/12/24 06:04:44;;;;;;;1.47;1.37;;;8.80;99.90;;;;;;6164931;23;20186;-91
2022/12/24 06:07:10;;;;;;;2.87;2.00;;;8.80;99.90;;;;;;6189896;23;20586;-90
2022/12/24 06:09:35;;;;;;;12.17;1.70;;;8.70;99.90;;;;;;6190047;23;20186;-90
2022/12/24 06:12:01;;;;;;;12.00;1.83;;;8.70;99.90;;;;;;6140466;23;20237;-89
2022/12/24 06:14:27;;;;;;;5.73;1.47;;;8.70;99.90;;;;;;6164986;23;20177;-90
2022/12/24 06:16:53;;;;;;;4.03;2.00;;;8.70;99.90;;;;;;6140142;23;20225;-89
2022/12/24 06:19:18;;;;;;;24.93;1.93;;;8.70;99.90;;;;;;6190096;23;20158;-90
2022/12/24 06:21:44;;;;;;;14.33;2.27;;;8.70;99.90;;;;;;6164864;23;20159;-89
2022/12/24 06:24:10;;;;;;;5.13;2.30;;;8.70;99.90;;;;;;6189836;23;20241;-91
2022/12/24 06:26:35;;;;;;;9.57;2.47;;;8.80;99.90;;;;;;6164445;23;20165;-90
2022/12/24 06:29:01;;;;;;;10.93;1.53;;;8.80;99.90;;;;;;6164885;23;20158;-90
2022/12/24 06:31:27;;;;;;;4.77;1.77;;;8.80;99.90;;;;;;6140336;23;20165;-89
2022/12/24 06:33:53;;;;;;;9.67;2.47;;;8.90;99.90;;;;;;6140315;23;20233;-91
2022/12/24 06:36:23;;;;;;;6.23;2.57;;;8.90;99.90;;;;;;6164865;23;20624;-90
2022/12/24 06:38:50;;;;;;;0.40;0.40;;;8.90;99.90;;;;;;6189683;23;20442;-90
2022/12/24 06:41:17;;;;;;;11.47;1.93;;;8.90;99.90;;;;;;6189536;23;20154;-90
2022/12/24 06:43:47;;;;;;;36.73;4.00;;;8.90;99.90;;;;;;6189695;23;20154;-90
2022/12/24 06:46:14;;;;;;;4.07;2.23;;;8.90;99.90;;;;;;6164684;23;20178;-88
2022/12/24 06:48:41;;;;;;;19.83;1.83;;;8.90;99.90;;;;;;6190099;23;20155;-91
2022/12/24 06:51:06;;;;;;;5.97;3.00;;;8.90;99.90;;;;;;6189728;23;20158;-91
2022/12/24 06:53:32;;;;;;;8.20;3.10;;;8.90;99.90;;;;;;6140244;23;20162;-88
2022/12/24 06:56:06;;;;;;;4.63;3.17;;;8.80;99.90;;;;;;6164271;23;20252;-89
2022/12/24 06:58:33;;;;;;;4.90;4.53;;;8.70;99.90;;;;;;6215879;23;20150;-90
2022/12/24 07:01:04;;;;;;;6.17;2.67;;;8.60;99.90;;;;;;6189091;23;20197;-90
2022/12/24 07:03:33;;;;;;;2.67;1.10;;;8.60;99.90;;;;;;6215479;23;20154;-88
2022/12/24 07:05:59;;;;;;;7.67;2.53;;;8.60;99.90;;;;;;6140577;23;20182;-89
2022/12/24 07:08:25;;;;;;;11.77;2.57;;;8.50;99.90;;;;;;6188800;23;20159;-90
2022/12/24 07:10:51;;;;;;;2.63;1.67;;;8.50;99.90;;;;;;6164529;23;20158;-89
2022/12/24 07:13:18;;;;;;;8.23;2.17;;;8.50;99.90;;;;;;6214791;23;20209;-89
2022/12/24 07:15:44;;;;;;;2.40;2.20;;;8.40;99.90;;;;;;6188972;23;20590;-89
2022/12/24 07:18:10;;;;;;;6.43;2.43;;;8.40;99.90;;;;;;6214881;23;20231;-89
2022/12/24 07:20:38;;;;;;;4.13;1.83;;;8.40;99.90;;;;;;6164617;23;20186;-89
2022/12/24 07:23:03;;;;;;;3.87;1.53;;;8.30;99.90;;;;;;6214750;23;20307;-88
2022/12/24 07:25:29;;;;;;;2.27;1.47;;;8.30;99.90;;;;;;6164080;23;20641;-89
2022/12/24 07:27:55;;;;;;;1.13;1.13;;;8.30;99.90;;;;;;6188859;23;20596;-90
2022/12/24 07:30:21;;;;;;;3.23;3.03;;;8.20;99.90;;;;;;6214708;23;20492;-89
2022/12/24 07:32:47;;;;;;;3.40;1.53;;;8.20;99.90;;;;;;6164265;23;20168;-90
2022/12/24 07:35:12;;;;;;;13.13;3.60;;;8.20;99.90;;;;;;6163465;23;20181;-89
2022/12/24 07:37:38;;;;;;;8.67;3.17;;;8.10;99.90;;;;;;6188725;23;20170;-91
2022/12/24 07:40:06;;;;;;;2.43;2.10;;;8.20;99.90;;;;;;6188287;23;20166;-89
2022/12/24 07:42:33;;;;;;;2.20;2.07;;;8.20;99.90;;;;;;6163649;23;20158;-88
2022/12/24 07:44:59;;;;;;;6.43;2.17;;;8.30;99.90;;;;;;6162592;23;20213;-88
2022/12/24 07:47:24;;;;;;;1.73;1.63;;;8.20;99.90;;;;;;6187329;23;20204;-88
2022/12/24 07:49:50;;;;;;;6.53;1.83;;;8.20;99.90;;;;;;6188352;23;20162;-89
2022/12/24 07:52:16;;;;;;;1.70;1.47;;;8.20;99.90;;;;;;6187312;23;20246;-88
2022/12/24 07:54:42;;;;;;;4.43;3.50;;;8.20;99.90;;;;;;6188153;23;20162;-88
2022/12/24 07:57:07;;;;;;;2.47;2.27;;;8.20;99.90;;;;;;6188220;23;20162;-88
2022/12/24 07:59:33;;;;;;;6.57;2.63;;;8.20;99.90;;;;;;6139706;23;20557;-88
2022/12/24 08:01:59;;;;;;;12.13;3.63;;;8.20;99.90;;;;;;6188625;23;20586;-88
2022/12/24 08:04:24;;;;;;;7.03;2.07;;;8.20;99.90;;;;;;6163435;23;20697;-89
2022/12/24 08:06:50;;;;;;;9.10;2.40;;;8.30;99.90;;;;;;6188796;23;20577;-89
2022/12/24 08:09:16;;;;;;;1.87;1.23;;;8.40;99.90;;;;;;6163845;23;20656;-89
2022/12/24 08:11:42;;;;;;;3.33;1.50;;;8.40;99.90;;;;;;6188659;23;20155;-90
2022/12/24 08:14:08;;;;;;;1.37;1.27;;;8.50;99.90;;;;;;6188526;23;20164;-89
2022/12/24 08:16:33;;;;;;;0.30;0.30;;;8.50;99.90;;;;;;6164050;23;20243;-89
2022/12/24 08:18:59;;;;;;;5.73;1.93;;;8.50;99.90;;;;;;6163725;23;20556;-88
2022/12/24 08:21:25;;;;;;;2.90;2.70;;;8.60;99.90;;;;;;6164191;23;20699;-88
2022/12/24 08:23:51;;;;;;;4.77;2.47;;;8.60;99.90;;;;;;6188371;23;20215;-90
2022/12/24 08:26:16;;;;;;;6.83;2.90;;;8.60;99.90;;;;;;6163001;23;20193;-90
2022/12/24 08:28:43;;;;;;;5.87;1.47;;;8.70;99.90;;;;;;6189372;23;20166;-89
2022/12/24 08:31:09;;;;;;;12.10;3.80;;;8.80;99.90;;;;;;6188937;23;20162;-92
2022/12/24 08:33:35;;;;;;;6.17;1.73;;;8.90;99.90;;;;;;6220445;23;20218;-88
2022/12/24 08:36:01;;;;;;;3.37;1.70;;;9.00;99.90;;;;;;6200240;23;20177;-90
2022/12/24 08:38:27;;;;;;;6.70;1.73;;;9.00;99.90;;;;;;6187522;23;20232;-92
2022/12/24 08:40:54;;;;;;;1.20;1.20;;;9.10;99.90;;;;;;6164961;23;20162;-92
2022/12/24 08:43:20;;;;;;;5.83;1.37;;;9.10;99.90;;;;;;6188850;23;20659;-93
2022/12/24 08:45:48;;;;;;;3.57;1.17;;;9.20;99.90;;;;;;6215341;23;20182;-94
2022/12/24 08:48:14;;;;;;;2.53;1.63;;;9.30;99.90;;;;;;6188794;23;20158;-93
2022/12/24 08:50:40;;;;;;;7.87;3.03;;;9.30;99.90;;;;;;6164734;23;20158;-92
2022/12/24 08:53:07;;;;;;;15.93;3.93;;;9.40;99.90;;;;;;6188328;23;20227;-92
2022/12/24 08:55:33;;;;;;;3.00;1.77;;;9.50;99.90;;;;;;6215326;23;20201;-91
2022/12/24 08:57:59;;;;;;;1.77;1.57;;;9.50;99.90;;;;;;6139491;23;20652;-91
2022/12/24 09:00:25;;;;;;;1.30;1.20;;;9.50;99.90;;;;;;6139866;23;20158;-91
2022/12/24 09:02:51;;;;;;;2.23;1.53;;;9.50;99.90;;;;;;6166011;23;20303;-90
2022/12/24 09:05:17;;;;;;;10.80;1.20;;;9.50;99.90;;;;;;6164691;23;20185;-93
2022/12/24 09:07:43;;;;;;;6.40;1.43;;;9.60;99.90;;;;;;6188994;23;20376;-93
2022/12/24 09:10:10;;;;;;;6.50;2.17;;;9.60;99.90;;;;;;6189303;23;20217;-94
2022/12/24 09:12:39;;;;;;;8.23;2.47;;;9.70;99.90;;;;;;6165588;23;20163;-93
2022/12/24 09:15:06;;;;;;;4.40;3.73;;;9.80;99.90;;;;;;6167215;23;20221;-94
2022/12/24 09:17:33;;;;;;;7.50;1.73;;;9.80;99.90;;;;;;6165701;23;20510;-90
2022/12/24 09:19:59;;;;;;;9.17;1.57;;;9.80;99.90;;;;;;6165061;23;20241;-89
2022/12/24 09:22:25;;;;;;;2.03;1.33;;;9.70;99.90;;;;;;6190898;23;20162;-92
2022/12/24 09:24:53;;;;;;;8.30;1.93;;;9.70;99.90;;;;;;6189209;23;20695;-95
2022/12/24 09:27:19;;;;;;;21.03;3.27;;;9.80;99.90;;;;;;6215333;23;20151;-91
2022/12/24 09:29:44;;;;;;;1.23;1.10;;;9.80;99.90;;;;;;6189513;23;20165;-92
2022/12/24 09:32:10;;;;;;;7.13;2.73;;;9.80;99.90;;;;;;6189303;23;20158;-93
2022/12/24 09:34:36;;;;;;;4.23;2.33;;;9.80;99.90;;;;;;6189759;23;20636;-93
2022/12/24 09:37:02;;;;;;;2.33;1.30;;;9.80;99.90;;;;;;6164836;23;20292;-86
2022/12/24 09:39:28;;;;;;;4.67;1.80;;;9.80;99.90;;;;;;6164086;23;20166;-87
2022/12/24 09:42:30;;;;;;;8.73;1.57;;;9.90;99.90;;;;;;6167714;23;20165;-86
2022/12/24 09:45:21;;;;;;;6.43;1.20;;;9.90;99.90;;;;;;6218106;23;20190;-88
2022/12/24 09:47:56;;;;;;;2.93;2.50;;;10.00;99.90;;;;;;6193037;23;20574;-88
2022/12/24 09:50:31;;;;;;;1.90;0.33;;;10.20;99.90;;;;;;6192055;23;20577;-87
2022/12/24 09:53:03;;;;;;;4.93;2.50;;;10.30;99.90;;;;;;6191977;23;20181;-86
2022/12/24 09:55:39;;;;;;;3.30;3.07;;;10.40;99.90;;;;;;6216624;23;20150;-87
2022/12/24 09:58:10;;;;;;;6.23;1.27;;;10.50;99.90;;;;;;6190131;23;20142;-86
2022/12/24 10:00:36;;;;;;;9.27;3.20;;;10.60;99.90;;;;;;6190265;23;20201;-88
2022/12/24 10:03:29;;;;;;;5.30;1.83;;;10.80;99.90;;;;;;6166000;23;20162;-88
2022/12/24 10:06:16;;;;;;;4.57;1.13;;;10.80;99.90;;;;;;6186850;23;20182;-86
2022/12/24 10:09:10;;;;;;;10.57;2.17;;;10.70;99.90;;;;;;6191420;23;20150;-87
2022/12/24 10:11:42;;;;;;;7.27;3.53;;;10.60;99.90;;;;;;6217932;23;20226;-87
2022/12/24 10:14:17;;;;;;;3.33;2.07;;;10.60;99.90;;;;;;6190810;23;20143;-88
2022/12/24 10:17:03;;;;;;;6.77;1.47;;;10.60;99.90;;;;;;6190976;23;20152;-88
2022/12/24 10:19:47;;;;;;;24.80;3.13;;;10.60;99.90;;;;;;6217392;23;20166;-87
2022/12/24 10:22:21;;;;;;;5.00;1.27;;;10.50;99.90;;;;;;6191314;23;20158;-87
2022/12/24 10:25:11;;;;;;;18.53;2.80;;;10.60;99.90;;;;;;6191171;23;20634;-87
2022/12/24 10:27:41;;;;;;;12.50;1.70;;;10.50;99.90;;;;;;6218000;23;20146;-87
2022/12/24 10:30:19;;;;;;;13.23;1.40;;;10.50;99.90;;;;;;6167670;23;20161;-86
2022/12/24 10:32:55;;;;;;;5.93;1.00;;;10.40;99.90;;;;;;6191792;23;20153;-87
2022/12/24 10:35:33;;;;;;;15.10;2.53;;;10.50;99.90;;;;;;6194503;23;20751;-87
2022/12/24 10:37:59;;;;;;;4.13;3.40;;;10.50;99.90;;;;;;6223234;23;20176;-87
2022/12/24 10:40:36;;;;;;;2.47;0.80;;;10.50;99.90;;;;;;6219483;23;20182;-87
2022/12/24 10:43:15;;;;;;;5.63;1.80;;;10.50;99.90;;;;;;6193861;23;20160;-89
2022/12/24 10:45:46;;;;;;;3.23;1.77;;;10.50;99.90;;;;;;6195177;23;20182;-89
2022/12/24 10:48:20;;;;;;;7.97;1.77;;;10.50;99.90;;;;;;6223395;23;20241;-89
2022/12/24 10:51:06;;;;;;;11.60;2.00;;;10.50;99.90;;;;;;6197695;23;20217;-88
2022/12/24 10:53:43;;;;;;;13.83;2.90;;;10.40;99.90;;;;;;6211455;23;20146;-88
2022/12/24 10:56:12;;;;;;;2.57;1.53;;;10.40;99.90;;;;;;6221583;23;20176;-89
2022/12/24 10:58:44;;;;;;;4.50;2.30;;;10.50;99.90;;;;;;6197853;23;20161;-89
2022/12/24 11:01:10;;;;;;;2.20;1.57;;;10.60;99.90;;;;;;6220036;23;20149;-87
2022/12/24 11:03:36;;;;;;;22.73;2.87;;;10.70;99.90;;;;;;6168913;23;20619;-87
2022/12/24 11:06:06;;;;;;;15.03;2.30;;;10.60;99.90;;;;;;6219891;23;20214;-87
2022/12/24 11:08:33;;;;;;;1.47;1.37;;;10.70;99.90;;;;;;6193512;23;20173;-87
2022/12/24 11:11:00;;;;;;;3.77;1.27;;;10.80;99.90;;;;;;6218111;23;20158;-88
2022/12/24 11:13:31;;;;;;;17.93;2.87;;;10.80;99.90;;;;;;6190051;23;20158;-89
2022/12/24 11:16:01;;;;;;;4.27;2.03;;;10.80;99.90;;;;;;6190309;23;20150;-88
2022/12/24 11:18:27;;;;;;;7.60;2.27;;;10.70;99.90;;;;;;6190324;23;20161;-88
2022/12/24 11:20:53;;;;;;;4.87;2.60;;;10.70;99.90;;;;;;6164561;23;20162;-89
2022/12/24 11:23:19;;;;;;;8.90;1.93;;;10.80;99.90;;;;;;6189546;23;20154;-88
2022/12/24 11:25:50;;;;;;;8.53;1.63;;;10.80;99.90;;;;;;6189608;23;20189;-89
2022/12/24 11:28:23;;;;;;;10.57;2.50;;;10.80;99.90;;;;;;6189469;23;20585;-89
2022/12/24 11:30:57;;;;;;;3.60;1.30;;;10.70;99.90;;;;;;6216418;23;20225;-89
2022/12/24 11:33:26;;;;;;;8.83;0.87;;;10.70;99.90;;;;;;6189444;23;20169;-88
2022/12/24 11:36:02;;;;;;;2.10;1.40;;;10.70;99.90;;;;;;6164961;23;20166;-88
2022/12/24 11:38:30;;;;;;;1.10;0.83;;;10.70;99.90;;;;;;6189525;23;20146;-87
2022/12/24 11:41:05;;;;;;;2.23;2.03;;;10.60;99.90;;;;;;6214957;23;20151;-88
2022/12/24 11:43:44;;;;;;;2.77;1.07;;;10.60;99.90;;;;;;6215951;23;20142;-89
2022/12/24 11:46:18;;;;;;;0.80;0.80;;;10.60;99.90;;;;;;6189570;23;20174;-87
2022/12/24 11:48:45;;;;;;;1.57;0.97;;;10.60;99.90;;;;;;6216003;23;20150;-87
2022/12/24 11:51:26;;;;;;;4.77;1.73;;;10.50;99.90;;;;;;6164949;23;20204;-89
2022/12/24 11:54:15;;;;;;;1.10;1.03;;;10.50;99.90;;;;;;6189779;23;20149;-87
2022/12/24 11:56:48;;;;;;;9.87;0.97;;;10.50;99.90;;;;;;6189710;23;20151;-87
2022/12/24 11:59:18;;;;;;;4.97;2.20;;;10.40;99.90;;;;;;6189703;23;20153;-88
2022/12/24 12:02:04;;;;;;;3.07;2.10;;;10.30;99.90;;;;;;6215904;23;20150;-88
2022/12/24 12:04:34;;;;;;;1.90;1.23;;;10.30;99.90;;;;;;6189634;23;20174;-89
2022/12/24 12:07:05;;;;;;;1.17;1.17;;;10.30;99.90;;;;;;6189527;23;20149;-87
2022/12/24 12:09:36;;;;;;;5.43;1.10;;;10.30;99.90;;;;;;6215002;23;20151;-88
2022/12/24 12:12:08;;;;;;;1.80;0.80;;;10.30;99.90;;;;;;6189250;23;20146;-88
2022/12/24 12:14:46;;;;;;;1.73;1.67;;;10.40;99.90;;;;;;6188149;23;20895;-88
2022/12/24 12:17:32;;;;;;;0.63;0.63;;;10.40;99.90;;;;;;6204104;23;20150;-89
2022/12/24 12:20:25;;;;;;;1.67;1.57;;;10.40;99.90;;;;;;6189824;23;20177;-89
2022/12/24 12:23:35;;;;;;;1.80;1.33;;;10.30;99.90;;;;;;6189296;23;20151;-89
2022/12/24 12:26:21;;;;;;;1.13;1.10;;;10.30;99.90;;;;;;6094433;23;20287;-88
2022/12/24 12:28:58;;;;;;;2.73;1.20;;;10.30;99.90;;;;;;6070525;23;20153;-88
2022/12/24 12:31:40;;;;;;;1.03;0.77;;;10.30;99.90;;;;;;6150966;23;20162;-87
2022/12/24 12:34:15;;;;;;;11.57;1.63;;;10.30;99.90;;;;;;6215400;23;20170;-86
2022/12/24 12:36:46;;;;;;;1.90;1.50;;;10.30;99.90;;;;;;6189409;23;20220;-86
2022/12/24 12:39:11;;;;;;;1.50;1.37;;;10.20;99.90;;;;;;6189571;23;20232;-86
2022/12/24 12:41:57;;;;;;;1.13;0.90;;;10.20;99.90;;;;;;6189195;23;20182;-87
2022/12/24 12:44:59;;;;;;;6.83;1.97;;;10.20;99.90;;;;;;6189168;23;20150;-87
2022/12/24 12:47:33;;;;;;;1.63;1.43;;;10.10;99.90;;;;;;6189239;23;20545;-86
2022/12/24 12:50:04;;;;;;;16.93;1.97;;;10.20;99.90;;;;;;6215279;23;20162;-86
2022/12/24 12:53:01;;;;;;;0.40;0.40;;;10.20;99.90;;;;;;6188769;23;20150;-88
2022/12/24 12:55:35;;;;;;;1.27;1.17;;;10.20;99.90;;;;;;6215508;23;20221;-89
2022/12/24 12:58:09;;;;;;;6.13;1.20;;;10.20;99.90;;;;;;6189002;23;20180;-88
2022/12/24 13:00:38;;;;;;;6.60;2.37;;;10.20;99.90;;;;;;6189090;23;20142;-89
2022/12/24 13:03:40;;;;;;;0.80;0.70;;;10.20;99.90;;;;;;6189478;23;20826;-90
2022/12/24 13:06:26;;;;;;;1.43;0.90;;;10.20;99.90;;;;;;6095962;23;20192;-90
2022/12/24 13:09:28;;;;;;;1.70;1.60;;;10.30;99.90;;;;;;6187709;23;20242;-90
2022/12/24 13:12:23;;;;;;;12.33;3.23;;;10.40;99.90;;;;;;6201944;23;20236;-89
2022/12/24 13:15:04;;;;;;;1.03;0.93;;;10.30;99.90;;;;;;6190507;23;20174;-89
2022/12/24 13:18:05;;;;;;;17.07;1.67;;;10.20;99.90;;;;;;6190021;23;20150;-90
2022/12/24 13:20:32;;;;;;;1.10;1.07;;;10.20;99.90;;;;;;6141230;23;20154;-89